Time;durP1;ratioP1;P1;durP2;ratioP2;P2;SDS_P1;SDS_P2;PMS_P1;PMS_P2;Temp;Humidity;BMP_temperature;BMP_pressure;BME280_temperature;BME280_humidity;BME280_pressure;Samples;Min_cycle;Max_cycle;Signal;HPM_P1;HPM_P2
2021/03/23 00:01:10;;;;;;;9.18;4.40;;;6.00;99.90;;;;;;5062862;28;20025;-76
2021/03/23 00:03:47;;;;;;;10.57;4.55;;;6.00;99.90;;;;;;5066414;28;20032;-74
2021/03/23 00:06:15;;;;;;;7.25;4.80;;;6.00;99.90;;;;;;5049132;28;20017;-75
2021/03/23 00:08:45;;;;;;;10.00;4.47;;;6.10;99.90;;;;;;5047016;28;20561;-76
2021/03/23 00:11:28;;;;;;;7.05;4.03;;;6.10;99.90;;;;;;5072316;28;20115;-74
2021/03/23 00:13:55;;;;;;;10.98;4.72;;;6.20;99.90;;;;;;5066536;28;20055;-75
2021/03/23 00:16:24;;;;;;;8.20;4.28;;;6.30;99.90;;;;;;5072772;28;20438;-74
2021/03/23 00:18:50;;;;;;;9.75;4.45;;;6.40;99.90;;;;;;5044246;28;20044;-77
2021/03/23 00:21:16;;;;;;;8.30;4.45;;;6.50;99.90;;;;;;5048616;28;20381;-75
2021/03/23 00:23:43;;;;;;;8.25;4.57;;;6.50;99.90;;;;;;5070339;28;20028;-75
2021/03/23 00:26:10;;;;;;;5.50;3.60;;;6.60;99.90;;;;;;5060914;28;20051;-74
2021/03/23 00:28:35;;;;;;;9.27;4.50;;;6.70;99.90;;;;;;5072206;28;20037;-73
2021/03/23 00:31:02;;;;;;;10.65;4.82;;;6.70;99.90;;;;;;5053853;28;20427;-77
2021/03/23 00:33:27;;;;;;;8.38;4.22;;;6.80;99.90;;;;;;5053957;28;20484;-74
2021/03/23 00:35:58;;;;;;;8.10;4.40;;;6.90;99.90;;;;;;5071409;28;20029;-74
2021/03/23 00:38:25;;;;;;;7.60;4.30;;;6.90;99.90;;;;;;5071021;28;20024;-74
2021/03/23 00:40:51;;;;;;;10.23;4.45;;;7.00;99.90;;;;;;5072162;28;20437;-73
2021/03/23 00:43:17;;;;;;;9.20;4.20;;;7.00;99.90;;;;;;5052476;28;20032;-73
2021/03/23 00:45:44;;;;;;;8.52;4.72;;;7.00;99.90;;;;;;5066607;28;20031;-76
2021/03/23 00:48:12;;;;;;;15.77;4.45;;;7.10;99.90;;;;;;5071571;28;20028;-76
2021/03/23 00:50:38;;;;;;;8.85;4.68;;;7.10;99.90;;;;;;5069410;28;20040;-76
2021/03/23 00:53:04;;;;;;;9.95;4.40;;;7.10;99.90;;;;;;5064143;28;20021;-75
2021/03/23 00:55:30;;;;;;;8.77;3.88;;;7.20;99.90;;;;;;5071861;28;20029;-74
2021/03/23 00:57:56;;;;;;;6.75;4.22;;;7.20;99.90;;;;;;5059830;28;20033;-74
2021/03/23 01:00:22;;;;;;;6.43;3.85;;;7.20;99.90;;;;;;5072671;28;20029;-73
2021/03/23 01:02:49;;;;;;;7.15;4.75;;;7.20;99.90;;;;;;5057211;28;20060;-75
2021/03/23 01:05:16;;;;;;;13.10;4.15;;;7.20;99.90;;;;;;5063374;28;20060;-73
2021/03/23 01:07:42;;;;;;;8.75;4.50;;;7.30;99.90;;;;;;5058760;28;20024;-74
2021/03/23 01:10:11;;;;;;;8.90;4.20;;;7.30;99.90;;;;;;5070899;28;20096;-74
2021/03/23 01:12:37;;;;;;;8.30;3.85;;;7.30;99.90;;;;;;5067115;28;20009;-75
2021/03/23 01:15:05;;;;;;;8.75;4.22;;;7.20;99.90;;;;;;5049903;28;20044;-74
2021/03/23 01:17:30;;;;;;;10.30;3.95;;;7.20;99.90;;;;;;5070788;28;20055;-76
2021/03/23 01:19:56;;;;;;;10.20;4.32;;;7.30;99.90;;;;;;5054445;28;20426;-75
2021/03/23 01:22:22;;;;;;;6.88;3.70;;;7.30;99.90;;;;;;5046117;28;20028;-75
2021/03/23 01:24:47;;;;;;;12.18;4.18;;;7.30;99.90;;;;;;5064023;28;20032;-75
2021/03/23 01:27:13;;;;;;;10.20;4.15;;;7.30;99.90;;;;;;5058551;28;20029;-75
2021/03/23 01:29:38;;;;;;;11.60;4.70;;;7.30;99.90;;;;;;5064223;28;20028;-74
2021/03/23 01:32:04;;;;;;;11.52;3.80;;;7.30;99.90;;;;;;5040407;28;20040;-74
2021/03/23 01:34:30;;;;;;;10.35;4.53;;;7.30;99.90;;;;;;5061384;28;20063;-74
2021/03/23 01:36:55;;;;;;;14.48;4.55;;;7.30;99.90;;;;;;5063066;28;20028;-75
2021/03/23 01:39:21;;;;;;;8.90;4.78;;;7.30;99.90;;;;;;5070759;28;20384;-74
2021/03/23 01:41:47;;;;;;;9.02;4.43;;;7.30;99.90;;;;;;5067043;28;20021;-74
2021/03/23 01:44:12;;;;;;;12.23;4.43;;;7.40;99.90;;;;;;5070291;28;20013;-72
2021/03/23 01:46:46;;;;;;;12.48;4.07;;;7.40;99.90;;;;;;5067662;28;20017;-73
2021/03/23 01:49:28;;;;;;;17.75;4.80;;;7.40;99.90;;;;;;5073628;28;20067;-74
2021/03/23 01:52:01;;;;;;;15.68;4.95;;;7.40;99.90;;;;;;5062115;28;20476;-73
2021/03/23 01:54:30;;;;;;;11.48;4.80;;;7.40;99.90;;;;;;5037583;28;20033;-74
2021/03/23 01:57:00;;;;;;;14.73;5.13;;;7.30;99.90;;;;;;5063425;28;20033;-75
2021/03/23 01:59:29;;;;;;;9.30;4.72;;;7.30;99.90;;;;;;5064574;28;20047;-74
2021/03/23 02:01:57;;;;;;;15.63;6.03;;;7.30;99.90;;;;;;5065649;28;20021;-74
2021/03/23 02:04:24;;;;;;;11.68;5.93;;;7.30;99.90;;;;;;5066228;28;20029;-74
2021/03/23 02:06:50;;;;;;;11.57;6.20;;;7.30;99.90;;;;;;5070639;28;20066;-74
2021/03/23 02:09:27;;;;;;;13.85;5.88;;;7.40;99.90;;;;;;5066415;28;20461;-74
2021/03/23 02:11:59;;;;;;;10.48;6.15;;;7.40;99.90;;;;;;5052519;28;20020;-75
2021/03/23 02:14:29;;;;;;;15.85;6.18;;;7.40;99.90;;;;;;5072750;28;20405;-73
2021/03/23 02:17:11;;;;;;;15.23;7.00;;;7.40;99.90;;;;;;5067220;28;20111;-74
2021/03/23 02:19:37;;;;;;;17.20;6.28;;;7.40;99.90;;;;;;5048111;28;20021;-74
2021/03/23 02:22:03;;;;;;;15.45;7.05;;;7.30;99.90;;;;;;5057754;28;20028;-75
2021/03/23 02:24:28;;;;;;;15.15;6.55;;;7.30;99.90;;;;;;5065193;28;20029;-76
2021/03/23 02:26:54;;;;;;;18.17;8.00;;;7.40;99.90;;;;;;5045586;28;20075;-75
2021/03/23 02:29:21;;;;;;;16.77;8.25;;;7.30;99.90;;;;;;5058269;28;20021;-75
2021/03/23 02:31:49;;;;;;;19.83;7.30;;;7.30;99.90;;;;;;5047177;28;20052;-75
2021/03/23 02:34:18;;;;;;;16.35;7.68;;;7.30;99.90;;;;;;5048102;28;20127;-75
2021/03/23 02:36:45;;;;;;;16.30;7.88;;;7.30;99.90;;;;;;5050290;28;20504;-75
2021/03/23 02:39:15;;;;;;;28.03;9.10;;;7.30;99.90;;;;;;5036924;28;20025;-75
2021/03/23 02:41:40;;;;;;;18.50;8.15;;;7.30;99.90;;;;;;5061618;28;20285;-75
2021/03/23 02:44:07;;;;;;;20.05;8.68;;;7.30;99.90;;;;;;5053730;28;20120;-75
2021/03/23 02:46:33;;;;;;;21.65;9.45;;;7.30;99.90;;;;;;5043381;28;20031;-75
2021/03/23 02:48:59;;;;;;;24.17;8.35;;;7.30;99.90;;;;;;5068905;28;20058;-75
2021/03/23 02:51:25;;;;;;;16.63;8.27;;;7.30;99.90;;;;;;5072734;28;20480;-76
2021/03/23 02:53:51;;;;;;;26.30;9.27;;;7.30;99.90;;;;;;5056439;28;20020;-75
2021/03/23 02:56:17;;;;;;;27.60;10.07;;;7.40;99.90;;;;;;5055270;28;20040;-74
2021/03/23 02:58:43;;;;;;;24.58;9.52;;;7.30;99.90;;;;;;5077738;28;20051;-75
2021/03/23 03:01:09;;;;;;;23.15;9.23;;;7.30;99.90;;;;;;5076014;28;20104;-74
2021/03/23 03:03:36;;;;;;;18.15;8.93;;;7.30;99.90;;;;;;5076144;28;20564;-75
2021/03/23 03:06:01;;;;;;;18.65;9.05;;;7.30;99.90;;;;;;5070654;28;20029;-74
2021/03/23 03:08:27;;;;;;;24.17;9.55;;;7.30;99.90;;;;;;5053830;28;20040;-75
2021/03/23 03:10:54;;;;;;;20.00;8.73;;;7.20;99.90;;;;;;5057153;28;20054;-74
2021/03/23 03:13:22;;;;;;;23.17;10.82;;;7.30;99.90;;;;;;5055195;28;20113;-75
2021/03/23 03:15:48;;;;;;;;;;;7.20;99.90;;;;;;5072206;28;20020;-75
2021/03/23 03:18:14;;;;;;;18.83;9.27;;;7.20;99.90;;;;;;5064129;28;20011;-74
2021/03/23 03:20:40;;;;;;;24.80;9.60;;;7.20;99.90;;;;;;5048657;28;20052;-75
2021/03/23 03:23:06;;;;;;;26.15;10.40;;;7.20;99.90;;;;;;5071899;28;20467;-74
2021/03/23 03:25:32;;;;;;;21.83;9.35;;;7.20;99.90;;;;;;5072030;28;20048;-76
2021/03/23 03:27:58;;;;;;;18.80;9.10;;;7.10;99.90;;;;;;5064035;28;20033;-75
2021/03/23 03:30:30;;;;;;;23.42;9.27;;;7.10;99.90;;;;;;5066603;28;20054;-75
2021/03/23 03:32:56;;;;;;;20.52;9.55;;;7.10;99.90;;;;;;5050206;28;20111;-75
2021/03/23 03:35:29;;;;;;;25.50;9.82;;;7.10;99.90;;;;;;5070490;28;20520;-75
2021/03/23 03:37:56;;;;;;;21.33;10.40;;;7.10;99.90;;;;;;5072981;28;20388;-75
2021/03/23 03:40:25;;;;;;;24.08;9.38;;;7.10;99.90;;;;;;5071812;28;20072;-75
2021/03/23 03:42:51;;;;;;;26.67;10.18;;;7.10;99.90;;;;;;5052488;28;20024;-75
2021/03/23 03:45:17;;;;;;;23.30;10.57;;;7.10;99.90;;;;;;5072121;28;20029;-75
2021/03/23 03:47:43;;;;;;;24.42;10.68;;;7.00;99.90;;;;;;5042763;28;20443;-74
2021/03/23 03:50:09;;;;;;;21.85;10.48;;;7.00;99.90;;;;;;5072964;28;20029;-74
2021/03/23 03:52:35;;;;;;;27.60;11.10;;;7.00;99.90;;;;;;5051455;28;20107;-75
2021/03/23 03:55:01;;;;;;;27.92;10.68;;;7.00;99.90;;;;;;5070925;28;20020;-75
2021/03/23 03:57:26;;;;;;;24.38;10.60;;;7.00;99.90;;;;;;5060996;28;20381;-75
2021/03/23 03:59:52;;;;;;;24.58;10.90;;;7.00;99.90;;;;;;5071693;28;20048;-75
2021/03/23 04:02:18;;;;;;;24.15;11.63;;;7.00;99.90;;;;;;5071237;28;20067;-75
2021/03/23 04:04:46;;;;;;;21.05;10.68;;;6.90;99.90;;;;;;5066533;28;20473;-76
2021/03/23 04:07:11;;;;;;;32.80;12.23;;;6.90;99.90;;;;;;5043022;28;20035;-75
2021/03/23 04:09:37;;;;;;;24.25;11.30;;;6.90;99.90;;;;;;5052943;28;20020;-75
2021/03/23 04:12:05;;;;;;;30.90;12.20;;;6.90;99.90;;;;;;5049407;28;20029;-75
2021/03/23 04:14:30;;;;;;;28.25;11.27;;;6.90;99.90;;;;;;5070966;28;20029;-74
2021/03/23 04:16:56;;;;;;;28.15;12.18;;;6.80;99.90;;;;;;5053856;28;20047;-75
2021/03/23 04:19:22;;;;;;;29.73;11.82;;;6.80;99.90;;;;;;5068962;28;20024;-74
2021/03/23 04:21:48;;;;;;;27.50;11.48;;;6.80;99.90;;;;;;5071153;28;20108;-75
2021/03/23 04:24:13;;;;;;;29.92;11.65;;;6.70;99.90;;;;;;5069906;28;20424;-74
2021/03/23 04:26:39;;;;;;;38.00;11.98;;;6.70;99.90;;;;;;5060826;28;20031;-75
2021/03/23 04:29:04;;;;;;;33.13;13.02;;;6.80;99.90;;;;;;5064662;28;20476;-74
2021/03/23 04:31:38;;;;;;;28.80;12.50;;;6.80;99.90;;;;;;5070011;28;20040;-75
2021/03/23 04:34:05;;;;;;;29.75;12.30;;;6.80;99.90;;;;;;5072930;28;20060;-74
2021/03/23 04:36:31;;;;;;;24.38;12.55;;;6.80;99.90;;;;;;5065723;28;20028;-74
2021/03/23 04:38:56;;;;;;;24.05;13.02;;;6.80;99.90;;;;;;5074164;28;20068;-75
2021/03/23 04:41:23;;;;;;;34.88;13.88;;;6.70;99.90;;;;;;5073800;28;20065;-75
2021/03/23 04:43:50;;;;;;;32.05;13.02;;;6.70;99.90;;;;;;5075968;28;20085;-75
2021/03/23 04:46:24;;;;;;;28.95;12.85;;;6.80;99.90;;;;;;5074599;28;20020;-75
2021/03/23 04:48:51;;;;;;;30.25;13.10;;;6.80;99.90;;;;;;5073416;28;20040;-75
2021/03/23 04:51:18;;;;;;;23.83;12.05;;;6.80;99.90;;;;;;5074664;28;20058;-75
2021/03/23 04:53:44;;;;;;;30.50;13.30;;;6.90;99.90;;;;;;5081885;28;20025;-74
2021/03/23 04:56:27;;;;;;;39.95;14.38;;;6.90;99.90;;;;;;5082141;28;20036;-75
2021/03/23 04:58:53;;;;;;;34.17;14.00;;;6.80;99.90;;;;;;5081347;28;20032;-74
2021/03/23 05:01:18;;;;;;;35.38;13.90;;;6.80;99.90;;;;;;5072589;28;20461;-74
2021/03/23 05:03:44;;;;;;;28.27;14.32;;;6.80;99.90;;;;;;5062588;28;20024;-75
2021/03/23 05:06:11;;;;;;;32.65;13.85;;;6.70;99.90;;;;;;5076659;28;20044;-75
2021/03/23 05:08:40;;;;;;;32.47;14.30;;;6.60;99.90;;;;;;5076754;28;20036;-74
2021/03/23 05:11:06;;;;;;;31.85;15.05;;;6.60;99.90;;;;;;5075869;28;20033;-75
2021/03/23 05:13:32;;;;;;;33.72;14.60;;;6.50;99.90;;;;;;5047152;28;20031;-74
2021/03/23 05:15:58;;;;;;;31.52;14.18;;;6.40;99.90;;;;;;5057671;28;20032;-75
2021/03/23 05:18:24;;;;;;;32.22;14.60;;;6.40;99.90;;;;;;5075766;28;20036;-74
2021/03/23 05:20:50;;;;;;;39.40;14.48;;;6.40;99.90;;;;;;5072389;28;20021;-75
2021/03/23 05:23:15;;;;;;;37.97;15.93;;;6.50;99.90;;;;;;5065242;28;20029;-74
2021/03/23 05:25:42;;;;;;;40.38;15.90;;;6.50;99.90;;;;;;5070253;28;20012;-74
2021/03/23 05:28:08;;;;;;;39.70;16.55;;;6.50;99.90;;;;;;5067211;28;20043;-74
2021/03/23 05:30:34;;;;;;;32.53;15.45;;;6.60;99.90;;;;;;5074292;28;20477;-75
2021/03/23 05:33:00;;;;;;;45.63;17.45;;;6.60;99.90;;;;;;5057018;28;20118;-74
2021/03/23 05:35:25;;;;;;;43.92;16.92;;;6.60;99.90;;;;;;5075102;28;20033;-74
2021/03/23 05:37:52;;;;;;;41.08;16.00;;;6.70;99.90;;;;;;5073188;28;20033;-75
2021/03/23 05:40:22;;;;;;;39.78;16.98;;;6.80;99.90;;;;;;5063947;28;20031;-73
2021/03/23 05:43:02;;;;;;;44.08;20.02;;;6.80;99.90;;;;;;5068433;28;20032;-73
2021/03/23 05:45:37;;;;;;;49.97;18.73;;;6.90;99.90;;;;;;5073357;28;20373;-73
2021/03/23 05:48:18;;;;;;;46.95;20.38;;;7.00;99.90;;;;;;5055098;28;20032;-73
2021/03/23 05:50:49;;;;;;;52.53;19.13;;;7.00;99.90;;;;;;5072420;28;20036;-73
2021/03/23 05:53:27;;;;;;;47.22;19.27;;;7.00;99.90;;;;;;5054913;28;20036;-73
2021/03/23 05:55:53;;;;;;;48.08;18.92;;;7.00;99.90;;;;;;5065415;28;20037;-75
2021/03/23 05:58:26;;;;;;;50.83;19.40;;;7.00;99.90;;;;;;5063794;28;20409;-75
2021/03/23 06:00:59;;;;;;;49.95;19.58;;;7.00;99.90;;;;;;5071215;28;20020;-73
2021/03/23 06:03:39;;;;;;;42.80;18.60;;;7.10;99.90;;;;;;5054632;28;20059;-74
2021/03/23 06:06:36;;;;;;;49.20;19.15;;;7.10;99.90;;;;;;5063593;28;20038;-73
2021/03/23 06:09:02;;;;;;;53.45;20.70;;;7.10;99.90;;;;;;5073976;28;20111;-73
2021/03/23 06:11:43;;;;;;;66.50;24.05;;;7.20;99.90;;;;;;5071649;28;20107;-73
2021/03/23 06:14:37;;;;;;;64.15;22.13;;;7.10;99.90;;;;;;5069879;28;20043;-73
2021/03/23 06:17:33;;;;;;;62.58;25.00;;;7.10;99.90;;;;;;5072809;28;20024;-74
2021/03/23 06:20:32;;;;;;;71.15;25.98;;;7.00;99.90;;;;;;5055391;28;20453;-74
2021/03/23 06:22:58;;;;;;;68.07;24.55;;;7.10;99.90;;;;;;5065099;28;20484;-73
2021/03/23 06:25:31;;;;;;;60.95;25.23;;;7.00;99.90;;;;;;5072777;28;20409;-73
2021/03/23 06:28:35;;;;;;;69.07;26.33;;;7.10;99.90;;;;;;5073908;28;20412;-75
2021/03/23 06:31:07;;;;;;;63.42;24.67;;;7.10;99.90;;;;;;5026086;28;20032;-75
2021/03/23 06:33:33;;;;;;;74.60;27.50;;;7.10;99.90;;;;;;5073008;28;20024;-74
2021/03/23 06:36:02;;;;;;;79.03;28.55;;;7.20;99.90;;;;;;5057719;28;20043;-74
2021/03/23 06:38:35;;;;;;;74.60;29.20;;;7.30;99.90;;;;;;5069293;28;20094;-72
2021/03/23 06:41:21;;;;;;;76.13;29.63;;;7.30;99.90;;;;;;5059872;28;20024;-73
2021/03/23 06:43:53;;;;;;;79.13;27.98;;;7.40;99.90;;;;;;5060924;28;20021;-74
2021/03/23 06:46:24;;;;;;;71.22;28.40;;;7.50;99.90;;;;;;5059775;28;20437;-73
2021/03/23 06:49:15;;;;;;;81.70;31.08;;;7.40;99.90;;;;;;5075952;28;20028;-75
2021/03/23 06:52:00;;;;;;;81.93;27.75;;;7.40;99.90;;;;;;5062153;28;20039;-73
2021/03/23 06:54:32;;;;;;;77.78;29.65;;;7.50;99.90;;;;;;5073548;28;20036;-76
2021/03/23 06:57:15;;;;;;;81.03;28.13;;;7.50;99.90;;;;;;5070718;28;20103;-74
2021/03/23 07:00:05;;;;;;;77.63;29.98;;;7.50;99.90;;;;;;5071237;28;20024;-74
2021/03/23 07:02:37;;;;;;;76.05;28.77;;;7.40;99.90;;;;;;5072407;28;20035;-75
2021/03/23 07:05:32;;;;;;;78.28;28.92;;;7.50;99.90;;;;;;5066924;28;20051;-74
2021/03/23 07:08:21;;;;;;;80.32;28.88;;;7.50;99.90;;;;;;5069394;28;20380;-74
2021/03/23 07:10:53;;;;;;;81.20;29.50;;;7.60;99.90;;;;;;5071961;28;20025;-73
2021/03/23 07:13:28;;;;;;;77.90;28.20;;;7.70;99.90;;;;;;5054013;28;20443;-73
2021/03/23 07:16:00;;;;;;;81.13;29.05;;;7.80;99.90;;;;;;5071708;28;20020;-74
2021/03/23 07:18:29;;;;;;;93.32;30.95;;;7.80;99.90;;;;;;5071545;28;20043;-74
2021/03/23 07:21:03;;;;;;;77.55;28.92;;;7.90;99.90;;;;;;5071556;28;20419;-74
2021/03/23 07:23:37;;;;;;;87.45;31.45;;;7.90;99.90;;;;;;5063624;28;20104;-74
2021/03/23 07:26:26;;;;;;;84.20;30.35;;;8.00;99.90;;;;;;5068254;28;20024;-74
2021/03/23 07:28:53;;;;;;;84.05;29.15;;;8.00;99.90;;;;;;5066704;28;20025;-74
2021/03/23 07:31:32;;;;;;;82.07;28.83;;;8.00;99.90;;;;;;5073248;28;20469;-73
2021/03/23 07:34:15;;;;;;;82.40;28.50;;;8.00;99.90;;;;;;5054272;28;20024;-73
2021/03/23 07:37:03;;;;;;;84.88;29.48;;;8.10;99.90;;;;;;5070516;28;20044;-74
2021/03/23 07:39:42;;;;;;;82.28;27.95;;;8.20;99.90;;;;;;5048537;28;20089;-74
2021/03/23 07:42:13;;;;;;;85.40;28.30;;;8.30;99.90;;;;;;5071450;28;20396;-74
2021/03/23 07:44:47;;;;;;;86.85;29.67;;;8.30;99.90;;;;;;5054288;28;20135;-73
2021/03/23 07:47:37;;;;;;;92.70;30.02;;;8.40;99.90;;;;;;5051830;28;20242;-74
2021/03/23 07:50:14;;;;;;;84.60;30.58;;;8.40;99.90;;;;;;5067250;28;20032;-74
2021/03/23 07:52:46;;;;;;;83.88;27.42;;;8.40;99.90;;;;;;5071550;28;20473;-74
2021/03/23 07:55:22;;;;;;;78.93;28.17;;;8.40;99.90;;;;;;5052996;28;20052;-74
2021/03/23 07:58:07;;;;;;;78.93;27.38;;;8.50;99.90;;;;;;5068972;28;20024;-73
2021/03/23 08:01:03;;;;;;;74.85;26.83;;;8.50;99.90;;;;;;5069194;28;20028;-74
2021/03/23 08:03:47;;;;;;;73.93;26.45;;;8.50;99.90;;;;;;5067940;28;20355;-72
2021/03/23 08:06:28;;;;;;;78.35;26.83;;;8.50;99.90;;;;;;5064604;28;20017;-74
2021/03/23 08:09:12;;;;;;;75.55;27.65;;;8.40;99.90;;;;;;5061024;28;20044;-73
2021/03/23 08:11:43;;;;;;;78.63;27.50;;;8.40;99.90;;;;;;5052038;28;20028;-74
2021/03/23 08:14:37;;;;;;;70.47;26.92;;;8.50;99.90;;;;;;5048831;28;20504;-76
2021/03/23 08:17:21;;;;;;;67.63;24.48;;;8.50;99.90;;;;;;5069831;28;20032;-75
2021/03/23 08:20:24;;;;;;;69.88;26.35;;;8.60;99.90;;;;;;5074508;28;20082;-75
2021/03/23 08:23:23;;;;;;;73.55;24.98;;;8.50;99.90;;;;;;5061439;28;20044;-75
2021/03/23 08:25:56;;;;;;;70.75;24.27;;;8.50;99.90;;;;;;5077154;28;20013;-77
2021/03/23 08:28:25;;;;;;;63.10;25.10;;;8.50;99.90;;;;;;5070508;28;20021;-74
2021/03/23 08:30:53;;;;;;;62.67;25.15;;;8.50;99.90;;;;;;5059503;28;20036;-74
2021/03/23 08:33:32;;;;;;;76.75;24.52;;;8.60;99.90;;;;;;5076121;28;20365;-75
2021/03/23 08:36:23;;;;;;;62.63;25.40;;;8.70;99.90;;;;;;5076141;28;20040;-75
2021/03/23 08:39:07;;;;;;;73.88;24.40;;;8.80;99.90;;;;;;5069958;28;20050;-75
2021/03/23 08:41:45;;;;;;;66.90;25.20;;;8.90;99.90;;;;;;5043291;28;20122;-74
2021/03/23 08:44:25;;;;;;;73.63;24.88;;;8.90;99.90;;;;;;5069757;28;20166;-73
2021/03/23 08:46:51;;;;;;;70.47;25.88;;;8.80;99.90;;;;;;5070974;28;20044;-75
2021/03/23 08:49:18;;;;;;;76.45;26.58;;;8.80;99.90;;;;;;5070775;28;20035;-73
2021/03/23 08:51:48;;;;;;;73.13;26.08;;;9.00;99.90;;;;;;5071272;28;20266;-73
2021/03/23 08:54:49;;;;;;;73.93;24.85;;;9.10;99.90;;;;;;5054632;28;20112;-73
2021/03/23 08:57:16;;;;;;;74.40;24.98;;;9.30;99.90;;;;;;5072331;28;20017;-73
2021/03/23 08:59:46;;;;;;;60.53;23.88;;;9.40;99.90;;;;;;5054606;28;20042;-73
2021/03/23 09:02:11;;;;;;;61.75;23.48;;;9.40;99.90;;;;;;5050893;28;20060;-73
2021/03/23 09:04:41;;;;;;;71.95;23.10;;;9.60;99.90;;;;;;5071967;28;20461;-72
2021/03/23 09:07:12;;;;;;;64.45;24.02;;;9.60;99.90;;;;;;5070856;28;20028;-73
2021/03/23 09:09:41;;;;;;;64.13;24.67;;;9.80;99.90;;;;;;5065210;28;20017;-74
2021/03/23 09:12:29;;;;;;;62.70;24.70;;;9.80;99.90;;;;;;5053146;28;20045;-73
2021/03/23 09:15:16;;;;;;;59.70;22.90;;;10.00;99.90;;;;;;5051763;28;20048;-73
2021/03/23 09:18:00;;;;;;;76.05;25.73;;;10.10;99.90;;;;;;5071886;28;20032;-73
2021/03/23 09:20:32;;;;;;;56.60;22.20;;;10.10;99.90;;;;;;5066371;28;20111;-73
2021/03/23 09:23:16;;;;;;;65.55;23.73;;;10.10;99.90;;;;;;5055444;28;20100;-73
2021/03/23 09:25:50;;;;;;;61.03;23.02;;;10.00;99.90;;;;;;5054333;28;20401;-72
2021/03/23 09:28:34;;;;;;;66.85;25.27;;;10.00;99.90;;;;;;5075878;28;20025;-73
2021/03/23 09:31:19;;;;;;;58.38;24.42;;;10.20;99.90;;;;;;5052488;28;20186;-74
2021/03/23 09:33:52;;;;;;;61.65;25.02;;;10.20;99.90;;;;;;5067834;28;20063;-74
2021/03/23 09:36:28;;;;;;;59.00;23.35;;;10.30;99.90;;;;;;5046266;28;20503;-74
2021/03/23 09:39:15;;;;;;;58.42;23.80;;;10.20;99.90;;;;;;5068488;28;20033;-74
2021/03/23 09:41:51;;;;;;;55.05;23.55;;;10.20;99.90;;;;;;5068218;28;20048;-73
2021/03/23 09:44:16;;;;;;;57.67;24.33;;;10.00;99.90;;;;;;5068160;28;20135;-72
2021/03/23 09:46:49;;;;;;;65.18;23.98;;;10.30;99.90;;;;;;5068987;28;20111;-72
2021/03/23 09:49:20;;;;;;;55.30;23.00;;;10.40;99.90;;;;;;5066614;28;20032;-71
2021/03/23 09:52:00;;;;;;;52.78;23.17;;;10.70;99.90;;;;;;5067363;28;20028;-71
2021/03/23 09:54:30;;;;;;;57.03;24.02;;;10.90;99.90;;;;;;5065110;28;20077;-71
2021/03/23 09:57:23;;;;;;;52.20;23.00;;;11.00;99.90;;;;;;5064613;28;20054;-74
2021/03/23 09:59:56;;;;;;;60.17;24.45;;;11.20;99.90;;;;;;5059327;28;21600;-74
2021/03/23 10:02:31;;;;;;;55.28;23.13;;;11.40;99.90;;;;;;5061468;28;20122;-73
2021/03/23 10:05:25;;;;;;;55.78;25.23;;;11.30;99.90;;;;;;5079343;28;20025;-74
2021/03/23 10:07:53;;;;;;;52.35;23.30;;;11.30;99.90;;;;;;5071805;28;20539;-72
2021/03/23 10:10:33;;;;;;;58.50;23.25;;;11.10;99.90;;;;;;5057081;28;20490;-72
2021/03/23 10:13:27;;;;;;;55.92;23.63;;;11.00;99.90;;;;;;5079532;28;20055;-72
2021/03/23 10:15:54;;;;;;;56.67;24.67;;;10.90;99.90;;;;;;5075492;28;20021;-71
2021/03/23 10:18:24;;;;;;;69.27;25.80;;;11.00;99.90;;;;;;5080297;28;20392;-72
2021/03/23 10:21:01;;;;;;;56.13;24.58;;;11.10;99.90;;;;;;5082526;28;20032;-71
2021/03/23 10:23:29;;;;;;;57.80;25.10;;;11.00;99.90;;;;;;5080172;28;20054;-71
2021/03/23 10:25:55;;;;;;;54.88;23.20;;;10.90;99.90;;;;;;5076974;28;20035;-73
2021/03/23 10:28:29;;;;;;;65.05;25.83;;;10.80;99.90;;;;;;5069945;28;20029;-72
2021/03/23 10:31:01;;;;;;;58.50;24.92;;;10.70;99.90;;;;;;5075712;28;20475;-72
2021/03/23 10:33:30;;;;;;;58.78;25.00;;;10.70;99.90;;;;;;5074898;28;20459;-74
2021/03/23 10:36:01;;;;;;;58.85;25.35;;;10.90;99.90;;;;;;5073699;28;20075;-73
2021/03/23 10:38:27;;;;;;;54.60;24.17;;;11.10;99.90;;;;;;5060162;28;20063;-73
2021/03/23 10:40:58;;;;;;;53.22;24.38;;;11.20;99.90;;;;;;5054646;28;20045;-73
2021/03/23 10:43:34;;;;;;;59.05;24.50;;;11.20;99.90;;;;;;5061461;28;20048;-73
2021/03/23 10:46:05;;;;;;;52.83;24.38;;;11.30;99.90;;;;;;5071806;28;20074;-72
2021/03/23 10:48:37;;;;;;;57.22;26.15;;;11.40;99.90;;;;;;5074296;28;20425;-73
2021/03/23 10:51:28;;;;;;;56.95;24.20;;;11.20;99.90;;;;;;5074253;28;20060;-73
2021/03/23 10:54:10;;;;;;;56.17;23.75;;;11.20;99.90;;;;;;5074087;28;20048;-73
2021/03/23 10:56:43;;;;;;;49.65;23.75;;;11.20;99.90;;;;;;5073877;28;20028;-72
2021/03/23 10:59:16;;;;;;;54.95;25.35;;;11.30;99.90;;;;;;5055347;28;20036;-72
2021/03/23 11:02:05;;;;;;;50.70;23.50;;;11.40;99.90;;;;;;5056094;28;20074;-72
2021/03/23 11:04:33;;;;;;;51.38;22.85;;;11.50;99.90;;;;;;5049450;28;20120;-72
2021/03/23 11:07:20;;;;;;;49.38;23.65;;;11.60;99.90;;;;;;5036015;28;20021;-72
2021/03/23 11:09:48;;;;;;;60.95;23.60;;;11.60;99.90;;;;;;5053912;28;20048;-72
2021/03/23 11:12:14;;;;;;;58.70;25.10;;;11.60;99.90;;;;;;5035980;28;20448;-72
2021/03/23 11:14:40;;;;;;;55.47;24.10;;;11.50;99.90;;;;;;5053822;28;20056;-72
2021/03/23 11:17:08;;;;;;;54.78;24.17;;;11.60;99.90;;;;;;5035906;28;20119;-72
2021/03/23 11:19:41;;;;;;;47.65;23.05;;;11.80;99.90;;;;;;5054767;28;20038;-72
2021/03/23 11:22:11;;;;;;;49.42;21.42;;;11.80;99.90;;;;;;5054044;28;20017;-72
2021/03/23 11:24:37;;;;;;;50.08;25.05;;;11.90;99.90;;;;;;5067430;28;20024;-72
2021/03/23 11:27:03;;;;;;;49.17;22.65;;;11.90;99.90;;;;;;5064485;28;20028;-72
2021/03/23 11:29:28;;;;;;;52.38;24.25;;;12.00;99.90;;;;;;5054213;28;20051;-72
2021/03/23 11:31:55;;;;;;;55.70;25.33;;;12.10;99.90;;;;;;5061589;28;20499;-72
2021/03/23 11:34:22;;;;;;;43.67;21.80;;;12.10;99.90;;;;;;5055297;28;20052;-72
2021/03/23 11:36:49;;;;;;;50.00;24.50;;;11.90;99.90;;;;;;5059235;28;20025;-72
2021/03/23 11:39:15;;;;;;;52.65;24.98;;;12.00;99.90;;;;;;5050929;28;20287;-73
2021/03/23 11:42:02;;;;;;;56.08;23.63;;;12.10;99.90;;;;;;5051142;28;20040;-73
2021/03/23 11:44:33;;;;;;;66.30;23.70;;;12.10;99.90;;;;;;5069165;28;20074;-73
2021/03/23 11:47:03;;;;;;;51.53;22.40;;;12.10;99.90;;;;;;5067827;28;20024;-72
2021/03/23 11:49:48;;;;;;;46.40;24.38;;;12.10;99.90;;;;;;5071814;28;20370;-73
2021/03/23 11:52:14;;;;;;;49.25;21.63;;;12.10;99.90;;;;;;5071242;28;20512;-73
2021/03/23 11:54:41;;;;;;;43.60;22.10;;;12.30;99.90;;;;;;5072267;28;20106;-73
2021/03/23 11:57:07;;;;;;;50.83;23.63;;;12.20;99.90;;;;;;5070230;28;20021;-73
2021/03/23 11:59:33;;;;;;;44.95;21.77;;;12.10;99.90;;;;;;5054290;28;20032;-73
2021/03/23 12:01:59;;;;;;;44.65;22.10;;;12.10;99.90;;;;;;5071873;28;20086;-72
2021/03/23 12:04:25;;;;;;;49.80;23.20;;;12.10;99.90;;;;;;5069348;28;20051;-73
2021/03/23 12:07:25;;;;;;;48.67;22.25;;;12.00;99.90;;;;;;5051255;28;20021;-72
2021/03/23 12:10:13;;;;;;;54.20;23.40;;;12.20;99.90;;;;;;5053494;28;20039;-73
2021/03/23 12:13:10;;;;;;;53.45;23.80;;;12.20;99.90;;;;;;5062013;28;20024;-72
2021/03/23 12:15:40;;;;;;;52.53;24.27;;;12.00;99.90;;;;;;5051187;28;20058;-73
2021/03/23 12:18:11;;;;;;;49.80;23.00;;;11.90;99.90;;;;;;5066589;28;20039;-72
2021/03/23 12:20:37;;;;;;;57.17;23.02;;;11.80;99.90;;;;;;5073094;28;20029;-72
2021/03/23 12:23:04;;;;;;;49.40;21.80;;;11.60;99.90;;;;;;5071733;28;20035;-72
2021/03/23 12:25:31;;;;;;;56.43;23.70;;;11.70;99.90;;;;;;5060616;28;20016;-72
2021/03/23 12:27:57;;;;;;;46.33;20.15;;;11.60;99.90;;;;;;5055029;28;20384;-72
2021/03/23 12:30:24;;;;;;;45.38;21.30;;;11.80;99.90;;;;;;5072936;28;20029;-72
2021/03/23 12:32:53;;;;;;;48.92;23.67;;;11.80;99.90;;;;;;5054567;28;20087;-72
2021/03/23 12:35:23;;;;;;;44.30;21.75;;;11.80;99.90;;;;;;5052793;28;20032;-72
2021/03/23 12:37:51;;;;;;;48.88;23.00;;;11.90;99.90;;;;;;5035622;28;20029;-73
2021/03/23 12:40:20;;;;;;;45.33;22.70;;;12.10;99.90;;;;;;5034873;28;20552;-73
2021/03/23 12:42:46;;;;;;;59.70;24.80;;;12.20;99.90;;;;;;5054068;28;20474;-72
2021/03/23 12:45:23;;;;;;;46.75;24.02;;;12.30;99.90;;;;;;5054364;28;20039;-72
2021/03/23 12:47:49;;;;;;;49.97;22.65;;;12.20;99.90;;;;;;5044830;28;20038;-72
2021/03/23 12:50:15;;;;;;;62.30;23.27;;;12.30;99.90;;;;;;5051923;28;20139;-73
2021/03/23 12:52:41;;;;;;;55.92;25.95;;;12.40;99.90;;;;;;5056245;28;20029;-72
2021/03/23 12:55:07;;;;;;;50.13;23.35;;;12.30;99.90;;;;;;5052662;28;20028;-73
2021/03/23 12:57:39;;;;;;;49.03;22.35;;;12.40;99.90;;;;;;5071156;28;20439;-73
2021/03/23 13:00:20;;;;;;;54.00;24.35;;;12.40;99.90;;;;;;5073551;28;20129;-73
2021/03/23 13:02:46;;;;;;;53.13;24.67;;;12.10;99.90;;;;;;5058945;28;20032;-73